createdAt,value
2018-05-11T00:01:17.288Z,32.50
2018-05-11T00:03:45.496Z,34.30
2018-05-11T00:06:13.675Z,33.60
2018-05-11T00:08:41.911Z,34.00
2018-05-11T00:11:09.341Z,34.10
2018-05-11T00:13:37.536Z,32.70
2018-05-11T00:16:05.035Z,32.80
2018-05-11T00:18:32.449Z,32.20
2018-05-11T00:21:00.658Z,33.50
2018-05-11T00:23:28.176Z,33.50
2018-05-11T00:25:55.540Z,33.60
2018-05-11T00:28:22.976Z,33.50
2018-05-11T00:30:50.418Z,33.40
2018-05-11T00:33:18.625Z,33.40
2018-05-11T00:35:46.822Z,33.30
2018-05-11T00:38:14.271Z,33.40
2018-05-11T00:40:41.700Z,35.00
2018-05-11T00:43:09.921Z,32.10
2018-05-11T00:45:38.134Z,33.30
2018-05-11T00:48:05.569Z,33.30
2018-05-11T00:50:33.009Z,32.90
2018-05-11T00:53:00.431Z,32.30
2018-05-11T00:55:39.642Z,31.50
2018-05-11T00:58:07.082Z,29.80
2018-05-11T01:00:34.506Z,29.20
2018-05-11T01:03:02.703Z,28.30
2018-05-11T01:05:30.892Z,28.10
2018-05-11T01:07:58.338Z,28.20
2018-05-11T01:10:25.777Z,26.40
2018-05-11T01:12:53.212Z,26.90
2018-05-11T01:15:20.638Z,27.40
2018-05-11T01:17:48.070Z,26.10
2018-05-11T01:20:15.505Z,26.40
2018-05-11T01:22:43.696Z,26.20
2018-05-11T01:25:11.902Z,25.00
2018-05-11T01:27:39.357Z,25.00
2018-05-11T01:30:06.801Z,24.70
2018-05-11T01:32:35.007Z,25.80
2018-05-11T01:35:03.216Z,25.10
2018-05-11T01:37:30.650Z,24.90
2018-05-11T01:39:58.859Z,24.40
2018-05-11T01:42:26.293Z,24.40
2018-05-11T01:44:53.719Z,23.90
2018-05-11T01:47:21.152Z,23.30
2018-05-11T01:49:49.350Z,24.50
2018-05-11T01:52:16.776Z,24.50
2018-05-11T01:54:44.218Z,23.50
2018-05-11T01:57:11.681Z,23.50
2018-05-11T01:59:39.110Z,21.80
2018-05-11T02:02:07.307Z,21.20
2018-05-11T02:04:35.503Z,20.70
2018-05-11T02:07:02.938Z,20.70
2018-05-11T02:09:30.378Z,19.60
2018-05-11T02:11:57.842Z,20.20
2018-05-11T02:14:25.284Z,19.90
2018-05-11T02:16:53.473Z,20.50
2018-05-11T02:19:20.891Z,20.50
2018-05-11T02:21:48.719Z,20.70
2018-05-11T02:24:16.153Z,21.10
2018-05-11T02:26:43.584Z,21.10
2018-05-11T02:29:11.020Z,20.80
2018-05-11T02:31:39.224Z,21.10
2018-05-11T02:34:06.657Z,21.00
2018-05-11T02:36:34.106Z,19.60
2018-05-11T02:39:01.530Z,19.10
2018-05-11T02:41:28.964Z,18.00
2018-05-11T02:43:56.438Z,18.20
2018-05-11T02:46:24.663Z,18.40
2018-05-11T02:48:52.080Z,18.30
2018-05-11T02:51:19.525Z,18.50
2018-05-11T02:53:46.975Z,18.20
2018-05-11T02:56:14.402Z,17.80
2018-05-11T02:58:41.832Z,18.30
2018-05-11T03:01:09.285Z,17.90
2018-05-11T03:03:36.730Z,17.80
2018-05-11T03:06:04.943Z,17.40
2018-05-11T03:08:32.368Z,17.50
2018-05-11T03:10:59.798Z,18.60
2018-05-11T03:13:27.247Z,17.80
2018-05-11T03:15:55.418Z,18.40
2018-05-11T03:18:22.945Z,17.50
2018-05-11T03:20:51.066Z,17.30
2018-05-11T03:23:19.249Z,18.10
2018-05-11T03:25:47.444Z,18.90
2018-05-11T03:28:14.872Z,18.90
2018-05-11T03:30:42.314Z,18.80
2018-05-11T03:33:09.738Z,18.50
2018-05-11T03:35:37.941Z,17.70
2018-05-11T03:38:05.352Z,17.70
2018-05-11T03:40:32.802Z,17.70
2018-05-11T03:43:00.223Z,17.70
2018-05-11T03:45:27.652Z,17.80
2018-05-11T03:47:55.081Z,18.20
2018-05-11T03:50:22.512Z,18.30
2018-05-11T03:52:49.942Z,18.90
2018-05-11T03:55:17.394Z,18.70
2018-05-11T03:57:44.808Z,18.50
2018-05-11T04:00:12.256Z,18.30
2018-05-11T04:02:51.430Z,19.00
2018-05-11T04:05:30.889Z,18.30
2018-05-11T04:08:11.064Z,18.80
2018-05-11T04:10:38.497Z,18.70
2018-05-11T04:13:05.968Z,19.00
2018-05-11T04:15:33.383Z,19.40
2018-05-11T04:18:01.574Z,19.10
2018-05-11T04:20:29.011Z,17.70
2018-05-11T04:22:56.437Z,18.20
2018-05-11T04:25:23.856Z,18.00
2018-05-11T04:27:51.293Z,18.50
2018-05-11T04:30:18.791Z,18.20
2018-05-11T04:32:46.217Z,18.50
2018-05-11T04:35:13.640Z,17.60
2018-05-11T04:37:41.065Z,17.70
2018-05-11T04:40:08.499Z,17.00
2018-05-11T04:42:36.689Z,17.20
2018-05-11T04:45:04.882Z,16.40
2018-05-11T04:47:32.323Z,16.40
2018-05-11T04:49:59.751Z,16.10
2018-05-11T04:52:27.177Z,16.40
2018-05-11T04:54:55.374Z,14.00
2018-05-11T04:57:23.574Z,15.10
2018-05-11T04:59:51.016Z,15.10
2018-05-11T05:02:19.220Z,16.70
2018-05-11T05:04:47.426Z,15.80
2018-05-11T05:07:14.846Z,15.80
2018-05-11T05:09:42.280Z,15.10
2018-05-11T05:12:09.786Z,14.80
2018-05-11T05:14:37.194Z,15.20
2018-05-11T05:17:05.456Z,13.90
2018-05-11T05:19:32.880Z,13.90
2018-05-11T05:22:00.305Z,14.20
2018-05-11T05:24:27.733Z,13.70
2018-05-11T05:26:55.161Z,13.60
2018-05-11T05:29:22.586Z,12.90
2018-05-11T05:31:50.043Z,11.60
2018-05-11T05:34:17.456Z,9.80
2018-05-11T05:36:45.658Z,8.70
2018-05-11T05:39:13.962Z,8.70
2018-05-11T05:41:41.283Z,8.80
2018-05-11T05:44:08.721Z,7.90
2018-05-11T05:46:36.203Z,8.20
2018-05-11T05:49:03.660Z,7.60
2018-05-11T05:51:31.108Z,8.30
2018-05-11T05:53:58.524Z,7.40
2018-05-11T05:56:25.952Z,7.10
2018-05-11T05:58:53.378Z,8.40
2018-05-11T06:01:20.805Z,6.10
2018-05-11T06:03:48.230Z,7.20
2018-05-11T06:06:16.425Z,8.70
2018-05-11T06:08:43.852Z,8.70
2018-05-11T06:11:11.280Z,8.50
2018-05-11T06:13:38.713Z,8.90
2018-05-11T06:16:06.136Z,8.10
2018-05-11T06:18:33.568Z,7.60
2018-05-11T06:21:01.743Z,7.80
2018-05-11T06:23:29.936Z,7.60
2018-05-11T06:25:58.162Z,7.30
2018-05-11T06:28:25.609Z,7.30
2018-05-11T06:30:53.032Z,7.30
2018-05-11T06:33:20.481Z,7.70
2018-05-11T06:35:47.904Z,8.00
2018-05-11T06:38:16.107Z,7.60
2018-05-11T06:40:43.585Z,7.70
2018-05-11T06:43:11.012Z,7.30
2018-05-11T06:45:38.444Z,7.80
2018-05-11T06:48:05.875Z,8.00
2018-05-11T06:50:33.295Z,8.20
2018-05-11T06:53:00.756Z,7.90
2018-05-11T06:55:28.188Z,8.10
2018-05-11T06:57:55.613Z,5.90
2018-05-11T07:00:23.056Z,6.70
2018-05-11T07:02:50.489Z,6.30
2018-05-11T07:05:17.917Z,7.40
2018-05-11T07:07:45.367Z,7.10
2018-05-11T07:10:12.792Z,7.20
2018-05-11T07:12:40.212Z,7.40
2018-05-11T07:15:07.653Z,7.60
2018-05-11T07:17:35.101Z,7.10
2018-05-11T07:20:03.307Z,6.70
2018-05-11T07:22:30.736Z,6.70
2018-05-11T07:24:58.163Z,5.10
2018-05-11T07:27:25.598Z,5.20
2018-05-11T07:29:53.772Z,3.80
2018-05-11T07:32:21.962Z,3.20
2018-05-11T07:34:50.186Z,3.40
2018-05-11T07:37:17.636Z,3.40
2018-05-11T07:39:45.061Z,1.50
2018-05-11T07:42:12.489Z,1.90
2018-05-11T07:44:39.919Z,2.50
2018-05-11T07:47:07.367Z,3.10
2018-05-11T07:49:34.795Z,2.70
2018-05-11T07:52:02.233Z,3.00
2018-05-11T07:54:29.645Z,2.60
2018-05-11T07:56:57.080Z,2.70
2018-05-11T07:59:25.302Z,3.30
2018-05-11T08:01:52.704Z,3.40
2018-05-11T08:04:20.145Z,3.70
2018-05-11T08:06:47.567Z,3.50
2018-05-11T08:09:15.005Z,2.00
2018-05-11T08:11:42.431Z,2.50
2018-05-11T08:14:09.900Z,3.20
2018-05-11T08:16:37.291Z,3.30
2018-05-11T08:19:04.717Z,2.90
2018-05-11T08:21:32.924Z,1.10
2018-05-11T08:24:00.339Z,1.10
2018-05-11T08:26:27.799Z,1.70
2018-05-11T08:28:55.230Z,1.30
2018-05-11T08:31:23.411Z,1.00
2018-05-11T08:33:50.839Z,1.60
2018-05-11T08:36:18.268Z,1.40
2018-05-11T08:38:45.692Z,1.10
2018-05-11T08:41:13.120Z,1.00
2018-05-11T08:43:40.532Z,1.00
2018-05-11T08:46:07.991Z,1.00
2018-05-11T08:48:35.427Z,1.00
2018-05-11T08:51:02.865Z,1.00
2018-05-11T08:53:30.303Z,1.00
2018-05-11T08:55:57.795Z,1.00
2018-05-11T08:58:25.158Z,1.00
2018-05-11T09:00:53.349Z,1.00
2018-05-11T09:03:21.545Z,1.00
2018-05-11T09:05:49.742Z,1.00
2018-05-11T09:08:17.947Z,1.00
2018-05-11T09:10:46.151Z,1.00
2018-05-11T09:13:13.603Z,1.00
2018-05-11T09:15:41.045Z,1.00
2018-05-11T09:18:08.475Z,1.00
2018-05-11T09:20:35.898Z,1.00
2018-05-11T09:23:03.337Z,1.00
2018-05-11T09:25:30.754Z,1.00
2018-05-11T09:27:58.177Z,1.00
2018-05-11T09:30:25.605Z,1.00
2018-05-11T09:32:53.042Z,1.00
2018-05-11T09:35:20.513Z,1.00
2018-05-11T09:37:47.948Z,1.00
2018-05-11T09:40:15.420Z,1.00
2018-05-11T09:42:42.864Z,1.00
2018-05-11T09:45:10.334Z,1.00
2018-05-11T09:47:37.733Z,1.00
2018-05-11T09:50:05.159Z,1.00
2018-05-11T09:52:32.596Z,1.00
2018-05-11T09:55:00.170Z,1.00
2018-05-11T09:57:27.536Z,1.00
2018-05-11T09:59:55.710Z,1.00
2018-05-11T10:02:23.967Z,1.00
2018-05-11T10:04:51.389Z,1.00
2018-05-11T10:07:18.824Z,1.00
2018-05-11T10:09:46.246Z,1.00
2018-05-11T10:12:13.685Z,1.00
2018-05-11T10:14:41.093Z,1.00
2018-05-11T10:17:08.514Z,1.00
2018-05-11T10:19:36.720Z,1.00
2018-05-11T10:22:04.148Z,1.00
2018-05-11T10:24:31.572Z,1.00
2018-05-11T10:26:59.000Z,1.00
2018-05-11T10:29:27.227Z,1.00
2018-05-11T10:31:55.445Z,1.00
2018-05-11T10:34:22.895Z,1.00
2018-05-11T10:36:50.363Z,1.00
2018-05-11T10:39:17.821Z,1.00
2018-05-11T10:41:45.993Z,1.00
2018-05-11T10:44:14.188Z,1.00
2018-05-11T10:46:41.616Z,1.00
2018-05-11T10:49:09.053Z,1.00
2018-05-11T10:51:36.488Z,1.00
2018-05-11T10:54:04.681Z,1.00
2018-05-11T10:56:32.097Z,1.00
2018-05-11T10:58:59.525Z,1.00
2018-05-11T11:01:26.945Z,1.00
2018-05-11T11:03:54.385Z,1.00
2018-05-11T11:06:21.804Z,1.00
2018-05-11T11:08:49.997Z,1.00
2018-05-11T11:11:17.416Z,1.00
2018-05-11T11:13:44.867Z,1.00
2018-05-11T11:16:12.285Z,1.00
2018-05-11T11:18:39.717Z,1.00
2018-05-11T11:21:07.162Z,1.00
2018-05-11T11:23:35.344Z,1.00
2018-05-11T11:26:03.610Z,1.00
2018-05-11T11:28:31.708Z,1.00
2018-05-11T11:30:59.930Z,1.00
2018-05-11T11:33:27.366Z,1.00
2018-05-11T11:35:54.775Z,1.00
2018-05-11T11:38:22.181Z,1.00
2018-05-11T11:40:49.608Z,1.00
2018-05-11T11:43:17.040Z,1.00
2018-05-11T11:45:45.216Z,1.00
2018-05-11T11:48:12.636Z,1.00
2018-05-11T11:50:40.103Z,1.00
2018-05-11T11:53:07.528Z,1.00
2018-05-11T11:55:34.937Z,1.00
2018-05-11T11:58:02.371Z,1.00
2018-05-11T12:00:30.565Z,1.00
2018-05-11T12:02:58.751Z,1.00
2018-05-11T12:05:26.963Z,1.00
2018-05-11T12:07:54.367Z,1.00
2018-05-11T12:10:22.324Z,1.00
2018-05-11T12:12:50.121Z,1.00
2018-05-11T12:15:17.524Z,1.00
2018-05-11T12:17:45.734Z,1.00
2018-05-11T12:20:13.904Z,1.00
2018-05-11T12:22:42.165Z,1.00
2018-05-11T12:25:09.517Z,1.00
2018-05-11T12:27:36.949Z,1.00
2018-05-11T12:30:04.408Z,1.00
2018-05-11T12:32:32.584Z,1.00
2018-05-11T12:35:00.071Z,1.00
2018-05-11T12:37:27.476Z,1.00
2018-05-11T12:39:54.877Z,1.00
2018-05-11T12:42:22.319Z,1.00
2018-05-11T12:44:49.749Z,1.00
2018-05-11T12:47:17.172Z,1.00
2018-05-11T12:49:44.594Z,1.00
2018-05-11T12:52:12.768Z,1.00
2018-05-11T12:54:40.974Z,1.00
2018-05-11T12:57:08.429Z,1.00
2018-05-11T12:59:36.629Z,1.00
2018-05-11T13:02:04.065Z,1.00
2018-05-11T13:04:31.485Z,1.00
2018-05-11T13:06:58.930Z,1.00
2018-05-11T13:09:26.355Z,1.00
2018-05-11T13:11:53.775Z,1.00
2018-05-11T13:14:21.199Z,1.00
2018-05-11T13:16:48.628Z,1.00
2018-05-11T13:19:16.047Z,1.00
2018-05-11T13:21:43.467Z,1.00
2018-05-11T13:24:10.900Z,1.00
2018-05-11T13:26:39.091Z,1.00
2018-05-11T13:29:07.278Z,1.00
2018-05-11T13:31:34.714Z,1.00
2018-05-11T13:34:02.145Z,1.00
2018-05-11T13:36:29.676Z,1.00
2018-05-11T13:38:57.013Z,1.00
2018-05-11T13:41:24.453Z,1.00
2018-05-11T13:43:51.888Z,1.00
2018-05-11T13:46:20.105Z,1.00
2018-05-11T13:48:47.517Z,1.00
2018-05-11T13:51:14.938Z,1.00
2018-05-11T13:53:42.379Z,1.00
2018-05-11T13:56:09.900Z,1.00
2018-05-11T13:58:37.272Z,1.00
2018-05-11T14:01:04.703Z,1.00
2018-05-11T14:03:32.196Z,1.00
2018-05-11T14:05:59.570Z,1.00
2018-05-11T14:08:27.001Z,1.00
2018-05-11T14:10:54.423Z,1.00
2018-05-11T14:13:21.845Z,1.00
2018-05-11T14:15:50.053Z,1.00
2018-05-11T14:18:17.490Z,1.00
2018-05-11T14:20:44.922Z,1.00
2018-05-11T14:23:12.363Z,1.00
2018-05-11T14:25:39.794Z,1.00
2018-05-11T14:28:07.203Z,1.00
2018-05-11T14:30:34.684Z,1.00
2018-05-11T14:33:02.108Z,1.00
2018-05-11T14:35:30.288Z,1.00
2018-05-11T14:37:58.481Z,1.00
2018-05-11T14:40:27.206Z,1.00
2018-05-11T14:42:54.620Z,1.00
2018-05-11T14:45:22.060Z,1.00
2018-05-11T14:47:49.493Z,1.00
2018-05-11T14:50:17.678Z,1.00
2018-05-11T14:52:45.861Z,1.00
2018-05-11T14:55:14.115Z,1.00
2018-05-11T14:57:41.538Z,1.00
2018-05-11T15:00:09.711Z,1.00
2018-05-11T15:02:37.921Z,1.00
2018-05-11T15:05:05.353Z,1.00
2018-05-11T15:07:32.768Z,1.00
2018-05-11T15:10:00.243Z,1.00
2018-05-11T15:12:27.610Z,1.00
2018-05-11T15:14:55.033Z,1.00
2018-05-11T15:17:23.247Z,1.00
2018-05-11T15:19:50.659Z,1.00
2018-05-11T15:22:18.079Z,1.00
2018-05-11T15:24:45.495Z,1.00
2018-05-11T15:27:12.998Z,1.00
2018-05-11T15:29:41.198Z,1.00
2018-05-11T15:32:08.654Z,1.00
2018-05-11T15:34:36.842Z,1.00
2018-05-11T15:37:05.056Z,1.00
2018-05-11T15:39:32.469Z,1.00
2018-05-11T15:41:59.901Z,1.00
2018-05-11T15:44:27.308Z,1.00
2018-05-11T15:46:54.728Z,1.00
2018-05-11T15:49:22.140Z,1.00
2018-05-11T15:51:49.578Z,1.00
2018-05-11T15:54:17.006Z,1.00
2018-05-11T15:56:44.439Z,1.00
2018-05-11T15:59:11.900Z,1.00
2018-05-11T16:01:40.063Z,1.00
2018-05-11T16:04:07.477Z,1.00
2018-05-11T16:06:34.912Z,1.00
2018-05-11T16:09:02.351Z,1.00
2018-05-11T16:11:30.538Z,1.00
2018-05-11T16:13:58.722Z,1.00
2018-05-11T16:16:26.141Z,1.00
2018-05-11T16:18:53.560Z,1.00
2018-05-11T16:21:21.765Z,1.00
2018-05-11T16:23:49.186Z,1.00
2018-05-11T16:26:16.618Z,1.00
2018-05-11T16:28:44.023Z,1.00
2018-05-11T16:31:11.438Z,1.00
2018-05-11T16:33:39.632Z,1.00
2018-05-11T16:36:07.082Z,1.00
2018-05-11T16:38:34.494Z,1.00
2018-05-11T16:41:01.934Z,1.00
2018-05-11T16:43:29.348Z,1.00
2018-05-11T16:45:56.783Z,1.00
2018-05-11T16:48:24.200Z,1.00
2018-05-11T16:50:51.633Z,1.00
2018-05-11T16:53:19.043Z,1.00
2018-05-11T16:55:46.469Z,1.00
2018-05-11T16:58:14.308Z,1.00
2018-05-11T17:00:42.496Z,1.00
2018-05-11T17:03:10.689Z,1.00
2018-05-11T17:05:38.878Z,1.00
2018-05-11T17:08:07.083Z,1.00
2018-05-11T17:10:35.241Z,1.00
2018-05-11T17:13:03.442Z,1.00
2018-05-11T17:15:31.633Z,1.00
2018-05-11T17:17:59.048Z,1.00
2018-05-11T17:20:26.475Z,1.00
2018-05-11T17:22:54.760Z,1.00
2018-05-11T17:25:23.101Z,1.00
2018-05-11T17:27:50.561Z,1.00
2018-05-11T17:30:17.979Z,1.00
2018-05-11T17:32:46.176Z,1.00
2018-05-11T17:35:13.633Z,1.00
2018-05-11T17:37:41.049Z,1.00
2018-05-11T17:40:08.474Z,1.00
2018-05-11T17:42:36.699Z,1.00
2018-05-11T17:45:04.129Z,1.00
2018-05-11T17:47:32.313Z,1.00
2018-05-11T17:49:59.792Z,1.00
2018-05-11T17:52:27.976Z,1.00
2018-05-11T17:54:55.457Z,1.00
2018-05-11T17:57:22.878Z,1.00
2018-05-11T17:59:50.324Z,1.00
2018-05-11T18:02:17.774Z,1.00
2018-05-11T18:04:45.964Z,1.00
2018-05-11T18:07:13.389Z,1.00
2018-05-11T18:09:40.809Z,1.00
2018-05-11T18:12:08.267Z,1.00
2018-05-11T18:14:35.656Z,1.00
2018-05-11T18:17:03.071Z,1.00
2018-05-11T18:19:30.497Z,1.00
2018-05-11T18:21:57.916Z,1.00
2018-05-11T18:24:26.125Z,1.00
2018-05-11T18:26:53.558Z,1.00
2018-05-11T18:29:21.214Z,1.00
2018-05-11T18:31:48.639Z,1.00
2018-05-11T18:34:16.933Z,1.00
2018-05-11T18:36:45.139Z,1.00
2018-05-11T18:39:12.557Z,1.00
2018-05-11T18:41:39.961Z,1.00
2018-05-11T18:44:07.377Z,1.00
2018-05-11T18:46:34.802Z,1.00
2018-05-11T18:49:02.276Z,1.00
2018-05-11T18:51:29.689Z,1.00
2018-05-11T18:53:57.389Z,1.00
2018-05-11T18:56:24.541Z,1.00
2018-05-11T18:58:52.783Z,1.00
2018-05-11T19:01:20.192Z,1.00
2018-05-11T19:03:47.632Z,1.00
2018-05-11T19:06:15.046Z,1.00
2018-05-11T19:08:43.223Z,1.00
2018-05-11T19:11:10.674Z,1.00
2018-05-11T19:13:38.107Z,1.00
2018-05-11T19:16:05.527Z,1.00
2018-05-11T19:18:32.954Z,1.00
2018-05-11T19:21:00.378Z,1.00
2018-05-11T19:23:28.597Z,1.00
2018-05-11T19:25:56.009Z,1.00
2018-05-11T19:28:23.453Z,1.00
2018-05-11T19:30:50.879Z,1.00
2018-05-11T19:33:19.078Z,1.00
2018-05-11T19:35:46.509Z,1.00
2018-05-11T19:38:13.938Z,1.00
2018-05-11T19:40:41.386Z,1.00
2018-05-11T19:43:09.564Z,1.00
2018-05-11T19:45:37.745Z,1.00
2018-05-11T19:48:05.169Z,1.00
2018-05-11T19:50:32.585Z,1.00
2018-05-11T19:53:00.014Z,1.00
2018-05-11T19:55:27.423Z,1.00
2018-05-11T19:57:55.617Z,1.00
2018-05-11T20:00:23.815Z,1.00
2018-05-11T20:02:51.232Z,1.00
2018-05-11T20:05:18.680Z,1.00
2018-05-11T20:07:46.108Z,1.00
2018-05-11T20:10:14.297Z,1.00
2018-05-11T20:12:42.484Z,1.00
2018-05-11T20:15:10.677Z,1.00
2018-05-11T20:17:38.870Z,1.00
2018-05-11T20:20:07.116Z,1.00
2018-05-11T20:22:34.545Z,1.00
2018-05-11T20:25:02.086Z,1.00
2018-05-11T20:27:29.388Z,1.00
2018-05-11T20:29:56.859Z,1.00
2018-05-11T20:32:24.301Z,1.00
2018-05-11T20:34:51.705Z,1.00
2018-05-11T20:37:19.125Z,1.00
2018-05-11T20:39:47.321Z,1.00
2018-05-11T20:42:15.504Z,1.00
2018-05-11T20:44:43.708Z,1.00
2018-05-11T20:47:11.204Z,1.00
2018-05-11T20:49:38.622Z,1.00
2018-05-11T20:52:06.053Z,1.00
2018-05-11T20:54:33.467Z,1.00
2018-05-11T20:57:01.660Z,1.00
2018-05-11T20:59:29.850Z,1.00
2018-05-11T21:01:58.048Z,1.00
2018-05-11T21:04:25.472Z,1.00
2018-05-11T21:06:52.904Z,1.00
2018-05-11T21:09:20.348Z,1.00
2018-05-11T21:11:47.772Z,1.00
2018-05-11T21:14:15.232Z,1.00
2018-05-11T21:16:42.641Z,1.00
2018-05-11T21:19:10.862Z,1.00
2018-05-11T21:21:38.267Z,1.00
2018-05-11T21:24:05.690Z,1.00
2018-05-11T21:26:33.132Z,1.00
2018-05-11T21:29:01.324Z,1.00
2018-05-11T21:31:28.846Z,1.00
2018-05-11T21:33:56.275Z,1.00
2018-05-11T21:36:23.705Z,1.00
2018-05-11T21:38:51.133Z,1.00
2018-05-11T21:41:18.571Z,1.00
2018-05-11T21:43:46.003Z,1.00
2018-05-11T21:46:13.427Z,1.00
2018-05-11T21:48:40.872Z,1.00
2018-05-11T21:51:08.309Z,1.00
2018-05-11T21:53:35.757Z,1.00
2018-05-11T21:56:03.186Z,1.00
2018-05-11T21:58:30.602Z,1.00
2018-05-11T22:00:58.058Z,1.00
2018-05-11T22:03:25.462Z,1.00
2018-05-11T22:05:53.680Z,1.00
2018-05-11T22:08:21.121Z,1.00
2018-05-11T22:10:48.548Z,1.00
2018-05-11T22:13:16.025Z,1.00
2018-05-11T22:15:43.440Z,1.00
2018-05-11T22:18:11.648Z,1.00
2018-05-11T22:20:39.068Z,1.00
2018-05-11T22:23:06.500Z,1.00
2018-05-11T22:25:33.945Z,1.00
2018-05-11T22:28:02.123Z,1.00
2018-05-11T22:30:30.308Z,1.00
2018-05-11T22:32:58.501Z,1.00
2018-05-11T22:35:26.686Z,1.00
2018-05-11T22:37:54.901Z,1.00
2018-05-11T22:40:22.367Z,1.00
2018-05-11T22:42:49.815Z,1.00
2018-05-11T22:45:17.988Z,1.00
2018-05-11T22:47:46.173Z,1.00
2018-05-11T22:50:14.367Z,1.00
2018-05-11T22:52:42.569Z,1.00
2018-05-11T22:55:09.998Z,1.00
2018-05-11T22:57:37.426Z,1.00
2018-05-11T23:00:04.858Z,1.00
2018-05-11T23:02:33.076Z,1.00
2018-05-11T23:05:00.518Z,1.00
2018-05-11T23:07:28.744Z,1.00
2018-05-11T23:09:56.966Z,1.00
2018-05-11T23:12:24.337Z,1.00
2018-05-11T23:14:51.778Z,1.00
2018-05-11T23:17:19.191Z,1.00
2018-05-11T23:19:47.400Z,1.00
2018-05-11T23:22:15.581Z,1.00
2018-05-11T23:24:43.772Z,1.00
2018-05-11T23:27:11.185Z,1.00
2018-05-11T23:29:38.603Z,1.00
2018-05-11T23:32:06.028Z,1.00
2018-05-11T23:34:33.455Z,1.00
2018-05-11T23:37:00.880Z,1.00
2018-05-11T23:39:28.324Z,1.00
2018-05-11T23:41:55.761Z,1.00
2018-05-11T23:44:23.215Z,1.00
2018-05-11T23:46:51.392Z,1.00
2018-05-11T23:49:19.573Z,1.00
2018-05-11T23:51:47.764Z,1.00
2018-05-11T23:54:15.214Z,1.00
2018-05-11T23:56:42.643Z,1.00
2018-05-11T23:59:10.105Z,1.30
